sensor_id;sensor_type;location;lat;lon;timestamp;P1;durP1;ratioP1;P2;durP2;ratioP2
77055;SDS011;67471;44.918;8.614;2023-03-01T00:01:08;28.23;;;15.63;;
77055;SDS011;67471;44.918;8.614;2023-03-01T00:04:14;29.08;;;16.13;;
77055;SDS011;67471;44.918;8.614;2023-03-01T00:07:17;26.90;;;15.18;;
77055;SDS011;67471;44.918;8.614;2023-03-01T00:10:21;29.17;;;17.27;;
77055;SDS011;67471;44.918;8.614;2023-03-01T00:13:25;27.88;;;15.98;;
77055;SDS011;67471;44.918;8.614;2023-03-01T00:16:30;28.98;;;16.52;;
77055;SDS011;67471;44.918;8.614;2023-03-01T00:19:36;28.20;;;16.00;;
77055;SDS011;67471;44.918;8.614;2023-03-01T00:22:40;27.63;;;15.60;;
77055;SDS011;67471;44.918;8.614;2023-03-01T00:25:44;25.90;;;15.55;;
77055;SDS011;67471;44.918;8.614;2023-03-01T00:28:48;26.10;;;14.80;;
77055;SDS011;67471;44.918;8.614;2023-03-01T00:31:52;26.00;;;15.38;;
77055;SDS011;67471;44.918;8.614;2023-03-01T00:34:56;27.02;;;14.73;;
77055;SDS011;67471;44.918;8.614;2023-03-01T00:37:59;28.73;;;15.02;;
77055;SDS011;67471;44.918;8.614;2023-03-01T00:41:04;28.08;;;15.35;;
77055;SDS011;67471;44.918;8.614;2023-03-01T00:44:12;24.00;;;15.10;;
77055;SDS011;67471;44.918;8.614;2023-03-01T00:47:16;28.73;;;16.45;;
77055;SDS011;67471;44.918;8.614;2023-03-01T00:50:19;28.80;;;16.58;;
77055;SDS011;67471;44.918;8.614;2023-03-01T00:53:24;30.02;;;15.75;;
77055;SDS011;67471;44.918;8.614;2023-03-01T00:56:28;25.88;;;15.50;;
77055;SDS011;67471;44.918;8.614;2023-03-01T00:59:32;27.48;;;15.70;;
77055;SDS011;67471;44.918;8.614;2023-03-01T01:02:36;29.20;;;17.27;;
77055;SDS011;67471;44.918;8.614;2023-03-01T01:05:40;28.40;;;15.65;;
77055;SDS011;67471;44.918;8.614;2023-03-01T01:08:44;29.08;;;15.77;;
77055;SDS011;67471;44.918;8.614;2023-03-01T01:11:49;28.80;;;17.40;;
77055;SDS011;67471;44.918;8.614;2023-03-01T01:14:53;32.13;;;17.05;;
77055;SDS011;67471;44.918;8.614;2023-03-01T01:17:57;28.55;;;15.85;;
77055;SDS011;67471;44.918;8.614;2023-03-01T01:21:05;31.67;;;15.95;;
77055;SDS011;67471;44.918;8.614;2023-03-01T01:24:14;31.42;;;15.65;;
77055;SDS011;67471;44.918;8.614;2023-03-01T01:27:18;30.20;;;17.70;;
77055;SDS011;67471;44.918;8.614;2023-03-01T01:30:22;28.13;;;15.82;;
77055;SDS011;67471;44.918;8.614;2023-03-01T01:33:26;29.27;;;16.80;;
77055;SDS011;67471;44.918;8.614;2023-03-01T01:36:30;32.50;;;16.25;;
77055;SDS011;67471;44.918;8.614;2023-03-01T01:39:35;29.60;;;18.08;;
77055;SDS011;67471;44.918;8.614;2023-03-01T01:42:38;31.48;;;17.48;;
77055;SDS011;67471;44.918;8.614;2023-03-01T01:45:42;25.55;;;16.38;;
77055;SDS011;67471;44.918;8.614;2023-03-01T01:48:47;31.70;;;17.60;;
77055;SDS011;67471;44.918;8.614;2023-03-01T01:52:03;30.95;;;16.48;;
77055;SDS011;67471;44.918;8.614;2023-03-01T01:58:26;35.03;;;17.17;;
77055;SDS011;67471;44.918;8.614;2023-03-01T02:01:33;31.20;;;16.88;;
77055;SDS011;67471;44.918;8.614;2023-03-01T02:04:36;35.92;;;17.60;;
77055;SDS011;67471;44.918;8.614;2023-03-01T02:07:40;28.48;;;16.52;;
77055;SDS011;67471;44.918;8.614;2023-03-01T02:10:45;28.17;;;17.35;;
77055;SDS011;67471;44.918;8.614;2023-03-01T02:13:49;33.88;;;17.40;;
77055;SDS011;67471;44.918;8.614;2023-03-01T02:16:54;31.50;;;17.88;;
77055;SDS011;67471;44.918;8.614;2023-03-01T02:20:18;29.15;;;16.77;;
77055;SDS011;67471;44.918;8.614;2023-03-01T02:23:24;26.75;;;16.48;;
77055;SDS011;67471;44.918;8.614;2023-03-01T02:29:48;34.00;;;19.20;;
77055;SDS011;67471;44.918;8.614;2023-03-01T02:32:52;29.85;;;17.80;;
77055;SDS011;67471;44.918;8.614;2023-03-01T02:36:28;30.60;;;18.23;;
77055;SDS011;67471;44.918;8.614;2023-03-01T02:39:35;37.97;;;17.77;;
77055;SDS011;67471;44.918;8.614;2023-03-01T02:42:55;33.33;;;19.05;;
77055;SDS011;67471;44.918;8.614;2023-03-01T02:46:08;32.78;;;18.48;;
77055;SDS011;67471;44.918;8.614;2023-03-01T02:49:26;27.80;;;17.13;;
77055;SDS011;67471;44.918;8.614;2023-03-01T02:52:46;32.13;;;20.02;;
77055;SDS011;67471;44.918;8.614;2023-03-01T02:55:57;34.75;;;18.48;;
77055;SDS011;67471;44.918;8.614;2023-03-01T02:59:02;31.95;;;19.10;;
77055;SDS011;67471;44.918;8.614;2023-03-01T03:02:07;34.08;;;18.20;;
77055;SDS011;67471;44.918;8.614;2023-03-01T03:05:43;30.63;;;17.73;;
77055;SDS011;67471;44.918;8.614;2023-03-01T03:08:46;35.13;;;17.92;;
77055;SDS011;67471;44.918;8.614;2023-03-01T03:11:50;32.45;;;18.40;;
77055;SDS011;67471;44.918;8.614;2023-03-01T03:14:54;32.35;;;18.77;;
77055;SDS011;67471;44.918;8.614;2023-03-01T03:17:58;30.42;;;18.67;;
77055;SDS011;67471;44.918;8.614;2023-03-01T03:21:02;31.65;;;17.38;;
77055;SDS011;67471;44.918;8.614;2023-03-01T03:24:05;33.75;;;18.65;;
77055;SDS011;67471;44.918;8.614;2023-03-01T03:27:09;32.55;;;17.98;;
77055;SDS011;67471;44.918;8.614;2023-03-01T03:30:14;30.55;;;17.75;;
77055;SDS011;67471;44.918;8.614;2023-03-01T03:33:20;35.35;;;18.85;;
77055;SDS011;67471;44.918;8.614;2023-03-01T03:36:24;34.20;;;19.40;;
77055;SDS011;67471;44.918;8.614;2023-03-01T03:39:28;30.58;;;18.48;;
77055;SDS011;67471;44.918;8.614;2023-03-01T03:42:32;32.92;;;19.75;;
77055;SDS011;67471;44.918;8.614;2023-03-01T03:45:35;33.55;;;18.50;;
77055;SDS011;67471;44.918;8.614;2023-03-01T03:48:41;32.80;;;18.08;;
77055;SDS011;67471;44.918;8.614;2023-03-01T03:51:47;35.50;;;19.63;;
77055;SDS011;67471;44.918;8.614;2023-03-01T03:54:51;36.78;;;19.20;;
77055;SDS011;67471;44.918;8.614;2023-03-01T03:57:55;35.67;;;19.10;;
77055;SDS011;67471;44.918;8.614;2023-03-01T04:01:01;34.40;;;18.38;;
77055;SDS011;67471;44.918;8.614;2023-03-01T04:04:05;35.08;;;19.83;;
77055;SDS011;67471;44.918;8.614;2023-03-01T04:07:10;36.50;;;19.67;;
77055;SDS011;67471;44.918;8.614;2023-03-01T04:10:15;33.25;;;18.50;;
77055;SDS011;67471;44.918;8.614;2023-03-01T04:13:21;32.83;;;19.45;;
77055;SDS011;67471;44.918;8.614;2023-03-01T04:16:25;33.13;;;18.60;;
77055;SDS011;67471;44.918;8.614;2023-03-01T04:19:29;33.90;;;19.05;;
77055;SDS011;67471;44.918;8.614;2023-03-01T04:22:32;36.97;;;19.92;;
77055;SDS011;67471;44.918;8.614;2023-03-01T04:25:37;35.83;;;19.55;;
77055;SDS011;67471;44.918;8.614;2023-03-01T04:28:42;35.05;;;19.45;;
77055;SDS011;67471;44.918;8.614;2023-03-01T04:31:48;34.72;;;18.75;;
77055;SDS011;67471;44.918;8.614;2023-03-01T04:34:52;39.85;;;20.95;;
77055;SDS011;67471;44.918;8.614;2023-03-01T04:37:56;33.55;;;18.65;;
77055;SDS011;67471;44.918;8.614;2023-03-01T04:40:59;32.88;;;19.45;;
77055;SDS011;67471;44.918;8.614;2023-03-01T04:44:03;34.47;;;19.58;;
77055;SDS011;67471;44.918;8.614;2023-03-01T04:47:07;37.63;;;20.38;;
77055;SDS011;67471;44.918;8.614;2023-03-01T04:50:11;33.05;;;18.50;;
77055;SDS011;67471;44.918;8.614;2023-03-01T04:53:17;30.98;;;18.58;;
77055;SDS011;67471;44.918;8.614;2023-03-01T04:56:21;35.28;;;19.00;;
77055;SDS011;67471;44.918;8.614;2023-03-01T04:59:26;35.92;;;18.55;;
77055;SDS011;67471;44.918;8.614;2023-03-01T05:02:30;34.13;;;18.65;;
77055;SDS011;67471;44.918;8.614;2023-03-01T05:05:35;36.03;;;18.65;;
77055;SDS011;67471;44.918;8.614;2023-03-01T05:08:40;36.17;;;19.00;;
77055;SDS011;67471;44.918;8.614;2023-03-01T05:11:45;34.33;;;19.05;;
77055;SDS011;67471;44.918;8.614;2023-03-01T05:14:48;34.70;;;20.58;;
77055;SDS011;67471;44.918;8.614;2023-03-01T05:17:54;33.70;;;19.48;;
77055;SDS011;67471;44.918;8.614;2023-03-01T05:21:09;37.25;;;20.13;;
77055;SDS011;67471;44.918;8.614;2023-03-01T05:24:14;35.50;;;19.48;;
77055;SDS011;67471;44.918;8.614;2023-03-01T05:27:19;36.60;;;19.30;;
77055;SDS011;67471;44.918;8.614;2023-03-01T05:30:25;32.90;;;20.02;;
77055;SDS011;67471;44.918;8.614;2023-03-01T05:33:29;32.83;;;20.10;;
77055;SDS011;67471;44.918;8.614;2023-03-01T05:36:32;38.75;;;20.58;;
77055;SDS011;67471;44.918;8.614;2023-03-01T05:39:36;37.72;;;19.98;;
77055;SDS011;67471;44.918;8.614;2023-03-01T05:42:41;42.05;;;21.95;;
77055;SDS011;67471;44.918;8.614;2023-03-01T05:45:48;39.78;;;22.35;;
77055;SDS011;67471;44.918;8.614;2023-03-01T05:48:52;37.65;;;20.90;;
77055;SDS011;67471;44.918;8.614;2023-03-01T05:51:56;34.67;;;19.85;;
77055;SDS011;67471;44.918;8.614;2023-03-01T05:55:00;40.78;;;22.20;;
77055;SDS011;67471;44.918;8.614;2023-03-01T05:58:05;38.42;;;20.67;;
77055;SDS011;67471;44.918;8.614;2023-03-01T06:01:11;38.47;;;21.70;;
77055;SDS011;67471;44.918;8.614;2023-03-01T06:04:16;37.30;;;20.52;;
77055;SDS011;67471;44.918;8.614;2023-03-01T06:07:20;35.58;;;19.80;;
77055;SDS011;67471;44.918;8.614;2023-03-01T06:10:24;35.75;;;20.35;;
77055;SDS011;67471;44.918;8.614;2023-03-01T06:13:27;36.83;;;19.65;;
77055;SDS011;67471;44.918;8.614;2023-03-01T06:16:31;40.70;;;21.15;;
77055;SDS011;67471;44.918;8.614;2023-03-01T06:19:35;37.13;;;20.33;;
77055;SDS011;67471;44.918;8.614;2023-03-01T06:22:39;36.42;;;20.23;;
77055;SDS011;67471;44.918;8.614;2023-03-01T06:25:43;38.78;;;20.17;;
77055;SDS011;67471;44.918;8.614;2023-03-01T06:28:47;34.33;;;19.65;;
77055;SDS011;67471;44.918;8.614;2023-03-01T06:31:51;39.90;;;21.35;;
77055;SDS011;67471;44.918;8.614;2023-03-01T06:34:54;41.25;;;22.70;;
77055;SDS011;67471;44.918;8.614;2023-03-01T06:37:59;38.38;;;21.83;;
77055;SDS011;67471;44.918;8.614;2023-03-01T06:41:04;39.05;;;21.27;;
77055;SDS011;67471;44.918;8.614;2023-03-01T06:44:07;38.50;;;21.60;;
77055;SDS011;67471;44.918;8.614;2023-03-01T06:47:11;44.50;;;21.13;;
77055;SDS011;67471;44.918;8.614;2023-03-01T06:50:15;42.92;;;21.80;;
77055;SDS011;67471;44.918;8.614;2023-03-01T06:53:20;33.05;;;19.17;;
77055;SDS011;67471;44.918;8.614;2023-03-01T06:56:23;40.42;;;19.95;;
77055;SDS011;67471;44.918;8.614;2023-03-01T06:59:27;33.95;;;19.02;;
77055;SDS011;67471;44.918;8.614;2023-03-01T07:02:31;37.42;;;20.25;;
77055;SDS011;67471;44.918;8.614;2023-03-01T07:05:35;33.58;;;19.52;;
77055;SDS011;67471;44.918;8.614;2023-03-01T07:08:39;37.13;;;19.70;;
77055;SDS011;67471;44.918;8.614;2023-03-01T07:11:43;40.90;;;20.17;;
77055;SDS011;67471;44.918;8.614;2023-03-01T07:14:46;37.67;;;19.02;;
77055;SDS011;67471;44.918;8.614;2023-03-01T07:17:50;38.40;;;19.05;;
77055;SDS011;67471;44.918;8.614;2023-03-01T07:20:54;33.33;;;18.30;;
77055;SDS011;67471;44.918;8.614;2023-03-01T07:23:58;36.10;;;18.58;;
77055;SDS011;67471;44.918;8.614;2023-03-01T07:27:02;35.33;;;19.63;;
77055;SDS011;67471;44.918;8.614;2023-03-01T07:30:06;32.42;;;19.35;;
77055;SDS011;67471;44.918;8.614;2023-03-01T07:33:10;36.45;;;20.77;;
77055;SDS011;67471;44.918;8.614;2023-03-01T07:36:14;34.13;;;20.33;;
77055;SDS011;67471;44.918;8.614;2023-03-01T07:39:18;31.75;;;18.30;;
77055;SDS011;67471;44.918;8.614;2023-03-01T07:42:22;31.60;;;19.63;;
77055;SDS011;67471;44.918;8.614;2023-03-01T07:45:26;30.77;;;17.67;;
77055;SDS011;67471;44.918;8.614;2023-03-01T07:48:30;30.83;;;17.73;;
77055;SDS011;67471;44.918;8.614;2023-03-01T07:51:34;31.70;;;17.45;;
77055;SDS011;67471;44.918;8.614;2023-03-01T07:54:38;32.60;;;18.25;;
77055;SDS011;67471;44.918;8.614;2023-03-01T07:57:41;35.92;;;18.88;;
77055;SDS011;67471;44.918;8.614;2023-03-01T08:00:45;32.25;;;17.83;;
77055;SDS011;67471;44.918;8.614;2023-03-01T08:03:49;31.95;;;17.67;;
77055;SDS011;67471;44.918;8.614;2023-03-01T08:06:54;32.45;;;17.85;;
77055;SDS011;67471;44.918;8.614;2023-03-01T08:09:58;32.78;;;17.08;;
77055;SDS011;67471;44.918;8.614;2023-03-01T08:13:01;30.63;;;17.50;;
77055;SDS011;67471;44.918;8.614;2023-03-01T08:16:07;31.90;;;17.40;;
77055;SDS011;67471;44.918;8.614;2023-03-01T08:19:14;34.35;;;17.10;;
77055;SDS011;67471;44.918;8.614;2023-03-01T08:22:18;33.38;;;17.00;;
77055;SDS011;67471;44.918;8.614;2023-03-01T08:25:22;33.72;;;18.08;;
77055;SDS011;67471;44.918;8.614;2023-03-01T08:28:25;30.33;;;15.43;;
77055;SDS011;67471;44.918;8.614;2023-03-01T08:31:31;31.75;;;17.58;;
77055;SDS011;67471;44.918;8.614;2023-03-01T08:37:42;28.17;;;15.13;;
77055;SDS011;67471;44.918;8.614;2023-03-01T08:40:46;35.22;;;17.75;;
77055;SDS011;67471;44.918;8.614;2023-03-01T08:43:50;27.90;;;16.73;;
77055;SDS011;67471;44.918;8.614;2023-03-01T08:46:54;32.55;;;17.15;;
77055;SDS011;67471;44.918;8.614;2023-03-01T08:49:59;27.98;;;16.10;;
77055;SDS011;67471;44.918;8.614;2023-03-01T08:53:03;30.17;;;15.68;;
77055;SDS011;67471;44.918;8.614;2023-03-01T08:56:07;30.10;;;16.77;;
77055;SDS011;67471;44.918;8.614;2023-03-01T08:59:11;28.60;;;16.15;;
77055;SDS011;67471;44.918;8.614;2023-03-01T09:02:16;26.58;;;16.58;;
77055;SDS011;67471;44.918;8.614;2023-03-01T09:05:21;30.95;;;16.38;;
77055;SDS011;67471;44.918;8.614;2023-03-01T09:08:25;26.98;;;16.02;;
77055;SDS011;67471;44.918;8.614;2023-03-01T09:11:29;29.33;;;15.98;;
77055;SDS011;67471;44.918;8.614;2023-03-01T09:14:33;27.63;;;16.40;;
77055;SDS011;67471;44.918;8.614;2023-03-01T09:17:36;24.67;;;15.13;;
77055;SDS011;67471;44.918;8.614;2023-03-01T09:20:40;28.20;;;16.38;;
77055;SDS011;67471;44.918;8.614;2023-03-01T09:23:45;30.42;;;15.85;;
77055;SDS011;67471;44.918;8.614;2023-03-01T09:26:52;25.48;;;14.77;;
77055;SDS011;67471;44.918;8.614;2023-03-01T09:29:56;26.80;;;15.43;;
77055;SDS011;67471;44.918;8.614;2023-03-01T09:33:00;24.63;;;14.82;;
77055;SDS011;67471;44.918;8.614;2023-03-01T09:36:04;28.83;;;15.90;;
77055;SDS011;67471;44.918;8.614;2023-03-01T09:39:10;25.85;;;14.80;;
77055;SDS011;67471;44.918;8.614;2023-03-01T09:42:14;24.55;;;14.32;;
77055;SDS011;67471;44.918;8.614;2023-03-01T09:45:31;29.77;;;16.15;;
77055;SDS011;67471;44.918;8.614;2023-03-01T09:48:41;25.75;;;14.50;;
77055;SDS011;67471;44.918;8.614;2023-03-01T09:51:53;27.95;;;16.05;;
77055;SDS011;67471;44.918;8.614;2023-03-01T09:54:59;25.00;;;14.20;;
77055;SDS011;67471;44.918;8.614;2023-03-01T09:58:17;27.17;;;15.13;;
77055;SDS011;67471;44.918;8.614;2023-03-01T10:04:43;22.60;;;14.60;;
77055;SDS011;67471;44.918;8.614;2023-03-01T10:11:16;37.72;;;19.30;;
77055;SDS011;67471;44.918;8.614;2023-03-01T10:14:29;35.58;;;20.38;;
77055;SDS011;67471;44.918;8.614;2023-03-01T10:18:00;30.35;;;19.27;;
77055;SDS011;67471;44.918;8.614;2023-03-01T10:21:15;28.63;;;18.85;;
77055;SDS011;67471;44.918;8.614;2023-03-01T10:24:22;26.42;;;16.00;;
77055;SDS011;67471;44.918;8.614;2023-03-01T10:27:33;38.67;;;16.42;;
77055;SDS011;67471;44.918;8.614;2023-03-01T10:30:42;24.98;;;15.25;;
77055;SDS011;67471;44.918;8.614;2023-03-01T10:33:47;27.48;;;14.88;;
77055;SDS011;67471;44.918;8.614;2023-03-01T10:37:08;26.48;;;15.48;;
77055;SDS011;67471;44.918;8.614;2023-03-01T10:40:14;29.13;;;15.73;;
77055;SDS011;67471;44.918;8.614;2023-03-01T10:43:18;26.17;;;15.27;;
77055;SDS011;67471;44.918;8.614;2023-03-01T10:49:30;24.23;;;14.33;;
77055;SDS011;67471;44.918;8.614;2023-03-01T10:52:35;29.40;;;14.68;;
77055;SDS011;67471;44.918;8.614;2023-03-01T10:55:40;25.60;;;14.30;;
77055;SDS011;67471;44.918;8.614;2023-03-01T10:59:09;27.90;;;14.20;;
77055;SDS011;67471;44.918;8.614;2023-03-01T11:08:26;27.75;;;14.10;;
77055;SDS011;67471;44.918;8.614;2023-03-01T11:11:33;31.35;;;14.07;;
77055;SDS011;67471;44.918;8.614;2023-03-01T11:14:38;20.80;;;13.88;;
77055;SDS011;67471;44.918;8.614;2023-03-01T11:17:49;25.75;;;13.30;;
77055;SDS011;67471;44.918;8.614;2023-03-01T11:20:53;22.15;;;13.70;;
77055;SDS011;67471;44.918;8.614;2023-03-01T11:24:00;23.17;;;13.40;;
77055;SDS011;67471;44.918;8.614;2023-03-01T11:27:06;26.30;;;14.55;;
77055;SDS011;67471;44.918;8.614;2023-03-01T11:30:37;27.35;;;15.75;;
77055;SDS011;67471;44.918;8.614;2023-03-01T11:33:46;23.13;;;14.57;;
77055;SDS011;67471;44.918;8.614;2023-03-01T11:36:54;24.75;;;14.52;;
77055;SDS011;67471;44.918;8.614;2023-03-01T11:46:51;27.08;;;14.45;;
77055;SDS011;67471;44.918;8.614;2023-03-01T12:01:19;27.55;;;13.77;;
77055;SDS011;67471;44.918;8.614;2023-03-01T12:08:15;24.25;;;13.95;;
77055;SDS011;67471;44.918;8.614;2023-03-01T12:11:43;23.83;;;13.48;;
77055;SDS011;67471;44.918;8.614;2023-03-01T12:18:47;20.77;;;12.90;;
77055;SDS011;67471;44.918;8.614;2023-03-01T12:22:30;24.38;;;13.23;;
77055;SDS011;67471;44.918;8.614;2023-03-01T12:46:04;25.40;;;13.68;;
77055;SDS011;67471;44.918;8.614;2023-03-01T12:49:18;21.40;;;12.43;;
77055;SDS011;67471;44.918;8.614;2023-03-01T12:52:40;25.77;;;13.45;;
77055;SDS011;67471;44.918;8.614;2023-03-01T12:55:47;22.27;;;13.15;;
77055;SDS011;67471;44.918;8.614;2023-03-01T13:05:45;24.92;;;14.55;;
77055;SDS011;67471;44.918;8.614;2023-03-01T13:15:50;32.15;;;14.32;;
77055;SDS011;67471;44.918;8.614;2023-03-01T13:19:15;25.05;;;13.38;;
77055;SDS011;67471;44.918;8.614;2023-03-01T13:22:28;23.75;;;13.15;;
77055;SDS011;67471;44.918;8.614;2023-03-01T13:25:35;22.23;;;12.82;;
77055;SDS011;67471;44.918;8.614;2023-03-01T13:29:04;25.23;;;13.75;;
77055;SDS011;67471;44.918;8.614;2023-03-01T13:32:29;27.05;;;14.15;;
77055;SDS011;67471;44.918;8.614;2023-03-01T13:35:41;23.83;;;13.05;;
77055;SDS011;67471;44.918;8.614;2023-03-01T13:38:47;24.63;;;13.65;;
77055;SDS011;67471;44.918;8.614;2023-03-01T13:42:01;31.75;;;14.90;;
77055;SDS011;67471;44.918;8.614;2023-03-01T13:45:12;25.40;;;14.68;;
77055;SDS011;67471;44.918;8.614;2023-03-01T13:48:33;23.75;;;14.25;;
77055;SDS011;67471;44.918;8.614;2023-03-01T13:51:37;27.38;;;15.63;;
77055;SDS011;67471;44.918;8.614;2023-03-01T13:54:41;28.52;;;14.60;;
77055;SDS011;67471;44.918;8.614;2023-03-01T13:57:46;23.35;;;13.60;;
77055;SDS011;67471;44.918;8.614;2023-03-01T14:00:57;26.92;;;14.57;;
77055;SDS011;67471;44.918;8.614;2023-03-01T14:04:19;23.35;;;13.60;;
77055;SDS011;67471;44.918;8.614;2023-03-01T14:07:24;25.55;;;14.30;;
77055;SDS011;67471;44.918;8.614;2023-03-01T14:10:31;23.10;;;14.00;;
77055;SDS011;67471;44.918;8.614;2023-03-01T14:20:24;25.23;;;13.25;;
77055;SDS011;67471;44.918;8.614;2023-03-01T14:23:30;22.42;;;12.57;;
77055;SDS011;67471;44.918;8.614;2023-03-01T14:26:34;25.17;;;13.30;;
77055;SDS011;67471;44.918;8.614;2023-03-01T14:29:40;25.27;;;14.05;;
77055;SDS011;67471;44.918;8.614;2023-03-01T14:32:47;25.67;;;13.43;;
77055;SDS011;67471;44.918;8.614;2023-03-01T14:36:04;26.50;;;15.52;;
77055;SDS011;67471;44.918;8.614;2023-03-01T14:39:17;26.60;;;14.07;;
77055;SDS011;67471;44.918;8.614;2023-03-01T14:42:23;28.08;;;14.75;;
77055;SDS011;67471;44.918;8.614;2023-03-01T14:45:30;27.75;;;15.00;;
77055;SDS011;67471;44.918;8.614;2023-03-01T14:48:34;26.63;;;14.02;;
77055;SDS011;67471;44.918;8.614;2023-03-01T14:51:39;27.88;;;13.82;;
77055;SDS011;67471;44.918;8.614;2023-03-01T14:54:46;28.80;;;15.27;;
77055;SDS011;67471;44.918;8.614;2023-03-01T14:57:55;25.65;;;14.00;;
77055;SDS011;67471;44.918;8.614;2023-03-01T15:01:03;23.75;;;13.05;;
77055;SDS011;67471;44.918;8.614;2023-03-01T15:04:09;24.60;;;12.88;;
77055;SDS011;67471;44.918;8.614;2023-03-01T15:07:15;22.02;;;12.68;;
77055;SDS011;67471;44.918;8.614;2023-03-01T15:10:20;25.27;;;13.65;;
77055;SDS011;67471;44.918;8.614;2023-03-01T15:13:29;28.13;;;13.13;;
77055;SDS011;67471;44.918;8.614;2023-03-01T15:16:34;25.83;;;12.90;;
77055;SDS011;67471;44.918;8.614;2023-03-01T15:19:45;26.33;;;13.75;;
77055;SDS011;67471;44.918;8.614;2023-03-01T15:22:49;22.98;;;13.60;;
77055;SDS011;67471;44.918;8.614;2023-03-01T15:25:53;24.73;;;13.75;;
77055;SDS011;67471;44.918;8.614;2023-03-01T15:29:01;30.92;;;14.15;;
77055;SDS011;67471;44.918;8.614;2023-03-01T15:32:05;24.42;;;14.30;;
77055;SDS011;67471;44.918;8.614;2023-03-01T15:35:40;24.83;;;12.27;;
77055;SDS011;67471;44.918;8.614;2023-03-01T15:38:53;23.65;;;13.35;;
77055;SDS011;67471;44.918;8.614;2023-03-01T15:41:58;29.70;;;14.45;;
77055;SDS011;67471;44.918;8.614;2023-03-01T15:48:17;27.13;;;14.43;;
77055;SDS011;67471;44.918;8.614;2023-03-01T15:51:28;26.33;;;14.23;;
77055;SDS011;67471;44.918;8.614;2023-03-01T15:54:36;26.08;;;13.70;;
77055;SDS011;67471;44.918;8.614;2023-03-01T15:57:43;23.70;;;13.18;;
77055;SDS011;67471;44.918;8.614;2023-03-01T16:00:48;27.02;;;13.63;;
77055;SDS011;67471;44.918;8.614;2023-03-01T16:03:54;31.45;;;15.70;;
77055;SDS011;67471;44.918;8.614;2023-03-01T16:06:59;28.95;;;14.60;;
77055;SDS011;67471;44.918;8.614;2023-03-01T16:10:04;32.17;;;14.18;;
77055;SDS011;67471;44.918;8.614;2023-03-01T16:13:08;28.10;;;14.25;;
77055;SDS011;67471;44.918;8.614;2023-03-01T16:16:13;29.23;;;15.20;;
77055;SDS011;67471;44.918;8.614;2023-03-01T16:19:19;25.52;;;14.27;;
77055;SDS011;67471;44.918;8.614;2023-03-01T16:22:23;28.35;;;13.93;;
77055;SDS011;67471;44.918;8.614;2023-03-01T16:25:28;29.17;;;14.55;;
77055;SDS011;67471;44.918;8.614;2023-03-01T16:28:33;31.23;;;14.60;;
77055;SDS011;67471;44.918;8.614;2023-03-01T16:31:36;29.10;;;14.60;;
77055;SDS011;67471;44.918;8.614;2023-03-01T16:34:40;27.95;;;15.55;;
77055;SDS011;67471;44.918;8.614;2023-03-01T16:37:44;30.92;;;15.68;;
77055;SDS011;67471;44.918;8.614;2023-03-01T16:40:50;31.85;;;15.43;;
77055;SDS011;67471;44.918;8.614;2023-03-01T16:43:54;33.40;;;16.02;;
77055;SDS011;67471;44.918;8.614;2023-03-01T16:46:58;30.42;;;15.07;;
77055;SDS011;67471;44.918;8.614;2023-03-01T16:50:02;32.72;;;17.05;;
77055;SDS011;67471;44.918;8.614;2023-03-01T16:53:06;31.00;;;17.08;;
77055;SDS011;67471;44.918;8.614;2023-03-01T16:56:10;28.35;;;16.13;;
77055;SDS011;67471;44.918;8.614;2023-03-01T16:59:15;29.38;;;16.17;;
77055;SDS011;67471;44.918;8.614;2023-03-01T17:02:19;29.38;;;15.20;;
77055;SDS011;67471;44.918;8.614;2023-03-01T17:05:23;28.60;;;14.35;;
77055;SDS011;67471;44.918;8.614;2023-03-01T17:08:28;27.92;;;16.45;;
77055;SDS011;67471;44.918;8.614;2023-03-01T17:11:32;27.90;;;14.70;;
77055;SDS011;67471;44.918;8.614;2023-03-01T17:14:36;29.48;;;15.82;;
77055;SDS011;67471;44.918;8.614;2023-03-01T17:17:40;28.48;;;15.23;;
77055;SDS011;67471;44.918;8.614;2023-03-01T17:20:44;31.85;;;15.27;;
77055;SDS011;67471;44.918;8.614;2023-03-01T17:23:48;29.98;;;16.27;;
77055;SDS011;67471;44.918;8.614;2023-03-01T17:26:52;33.58;;;17.23;;
77055;SDS011;67471;44.918;8.614;2023-03-01T17:29:56;29.15;;;16.25;;
77055;SDS011;67471;44.918;8.614;2023-03-01T17:33:00;30.60;;;16.00;;
77055;SDS011;67471;44.918;8.614;2023-03-01T17:36:04;27.00;;;14.98;;
77055;SDS011;67471;44.918;8.614;2023-03-01T17:39:09;27.25;;;15.88;;
77055;SDS011;67471;44.918;8.614;2023-03-01T17:42:13;32.88;;;16.67;;
77055;SDS011;67471;44.918;8.614;2023-03-01T17:45:17;33.80;;;17.75;;
77055;SDS011;67471;44.918;8.614;2023-03-01T17:48:21;32.85;;;17.27;;
77055;SDS011;67471;44.918;8.614;2023-03-01T17:51:25;30.50;;;16.73;;
77055;SDS011;67471;44.918;8.614;2023-03-01T17:54:29;32.75;;;17.45;;
77055;SDS011;67471;44.918;8.614;2023-03-01T17:57:39;30.90;;;16.60;;
77055;SDS011;67471;44.918;8.614;2023-03-01T18:00:43;30.52;;;16.75;;
77055;SDS011;67471;44.918;8.614;2023-03-01T18:03:49;32.97;;;17.90;;
77055;SDS011;67471;44.918;8.614;2023-03-01T18:06:53;36.90;;;19.10;;
77055;SDS011;67471;44.918;8.614;2023-03-01T18:09:58;35.67;;;18.83;;
77055;SDS011;67471;44.918;8.614;2023-03-01T18:13:02;35.70;;;18.75;;
77055;SDS011;67471;44.918;8.614;2023-03-01T18:16:08;37.30;;;18.02;;
77055;SDS011;67471;44.918;8.614;2023-03-01T18:19:15;33.15;;;18.15;;
77055;SDS011;67471;44.918;8.614;2023-03-01T18:22:19;39.22;;;19.83;;
77055;SDS011;67471;44.918;8.614;2023-03-01T18:25:23;34.20;;;17.85;;
77055;SDS011;67471;44.918;8.614;2023-03-01T18:28:27;35.58;;;18.05;;
77055;SDS011;67471;44.918;8.614;2023-03-01T18:31:32;38.88;;;20.40;;
77055;SDS011;67471;44.918;8.614;2023-03-01T18:34:36;34.60;;;17.85;;
77055;SDS011;67471;44.918;8.614;2023-03-01T18:37:39;34.10;;;19.80;;
77055;SDS011;67471;44.918;8.614;2023-03-01T18:40:43;37.03;;;19.42;;
77055;SDS011;67471;44.918;8.614;2023-03-01T18:43:48;37.08;;;18.75;;
77055;SDS011;67471;44.918;8.614;2023-03-01T18:46:52;38.28;;;19.50;;
77055;SDS011;67471;44.918;8.614;2023-03-01T18:49:55;38.33;;;18.88;;
77055;SDS011;67471;44.918;8.614;2023-03-01T18:52:59;34.30;;;19.13;;
77055;SDS011;67471;44.918;8.614;2023-03-01T18:56:03;30.10;;;17.08;;
77055;SDS011;67471;44.918;8.614;2023-03-01T18:59:08;31.55;;;16.70;;
77055;SDS011;67471;44.918;8.614;2023-03-01T19:02:12;35.38;;;17.45;;
77055;SDS011;67471;44.918;8.614;2023-03-01T19:05:17;32.83;;;18.35;;
77055;SDS011;67471;44.918;8.614;2023-03-01T19:08:21;38.13;;;18.48;;
77055;SDS011;67471;44.918;8.614;2023-03-01T19:11:44;33.95;;;17.75;;
77055;SDS011;67471;44.918;8.614;2023-03-01T19:14:47;32.42;;;17.38;;
77055;SDS011;67471;44.918;8.614;2023-03-01T19:17:51;34.25;;;17.33;;
77055;SDS011;67471;44.918;8.614;2023-03-01T19:21:02;31.98;;;16.80;;
77055;SDS011;67471;44.918;8.614;2023-03-01T19:24:06;30.73;;;16.20;;
77055;SDS011;67471;44.918;8.614;2023-03-01T19:27:10;30.13;;;16.63;;
77055;SDS011;67471;44.918;8.614;2023-03-01T19:30:14;34.78;;;18.33;;
77055;SDS011;67471;44.918;8.614;2023-03-01T19:33:18;36.05;;;17.83;;
77055;SDS011;67471;44.918;8.614;2023-03-01T19:36:22;34.40;;;17.75;;
77055;SDS011;67471;44.918;8.614;2023-03-01T19:39:34;32.78;;;18.10;;
77055;SDS011;67471;44.918;8.614;2023-03-01T19:42:38;34.10;;;17.85;;
77055;SDS011;67471;44.918;8.614;2023-03-01T19:45:42;35.55;;;18.10;;